Time;durP1;ratioP1;P1;durP2;ratioP2;P2;SDS_P1;SDS_P2;PMS_P1;PMS_P2;Temp;Humidity;BMP_temperature;BMP_pressure;BME280_temperature;BME280_humidity;BME280_pressure;Samples;Min_cycle;Max_cycle;Signal;HPM_P1;HPM_P2
2024/03/03 00:02:02;;;;;;;40.63;29.97;;;;;;;;;;5056183;28;20889;-71
2024/03/03 00:04:30;;;;;;;43.60;28.50;;;;;;;;;;5055960;28;20479;-71
2024/03/03 00:06:57;;;;;;;39.17;29.20;;;;;;;;;;5055892;28;20510;-71
2024/03/03 00:09:24;;;;;;;42.80;29.83;;;;;;;;;;5056435;28;20451;-71
2024/03/03 00:11:51;;;;;;;42.70;29.50;;;;;;;;;;5056175;28;20827;-71
2024/03/03 00:14:18;;;;;;;42.00;29.90;;;;;;;;;;5055903;28;20450;-71
2024/03/03 00:16:45;;;;;;;46.73;31.37;;;;;;;;;;5055797;28;20531;-71
2024/03/03 00:19:12;;;;;;;46.37;30.43;;;;;;;;;;5055686;28;20531;-71
2024/03/03 00:21:40;;;;;;;42.43;29.17;;;;;;;;;;5055636;28;20883;-71
2024/03/03 00:24:07;;;;;;;40.00;28.97;;;;;;;;;;5055466;28;20476;-71
2024/03/03 00:26:34;;;;;;;42.63;29.17;;;;;;;;;;5055680;28;20540;-71
2024/03/03 00:29:01;;;;;;;44.07;29.30;;;;;;;;;;5055625;28;20444;-71
2024/03/03 00:31:28;;;;;;;44.33;30.30;;;;;;;;;;5055527;28;20440;-71
2024/03/03 00:33:55;;;;;;;44.10;28.70;;;;;;;;;;5055456;28;20472;-71
2024/03/03 00:36:22;;;;;;;42.07;30.67;;;;;;;;;;5055283;28;20541;-71
2024/03/03 00:38:50;;;;;;;40.00;29.87;;;;;;;;;;5055372;28;20476;-71
2024/03/03 00:41:17;;;;;;;48.27;31.27;;;;;;;;;;5055378;28;20452;-71
2024/03/03 00:43:44;;;;;;;46.97;31.10;;;;;;;;;;5055405;28;20874;-71
2024/03/03 00:46:11;;;;;;;51.03;32.20;;;;;;;;;;5055152;28;20484;-71
2024/03/03 00:48:38;;;;;;;49.50;31.23;;;;;;;;;;5055124;28;20445;-71
2024/03/03 00:51:05;;;;;;;43.40;29.37;;;;;;;;;;5055013;28;20448;-71
2024/03/03 00:53:32;;;;;;;41.50;30.30;;;;;;;;;;5055231;28;20445;-71
2024/03/03 00:56:00;;;;;;;43.20;29.93;;;;;;;;;;5054408;28;20446;-71
2024/03/03 00:58:27;;;;;;;42.90;30.00;;;;;;;;;;5055038;28;21007;-71
2024/03/03 01:00:54;;;;;;;45.43;31.40;;;;;;;;;;5054947;28;20444;-71
2024/03/03 01:03:21;;;;;;;47.60;33.40;;;;;;;;;;5054856;28;20502;-71
2024/03/03 01:05:48;;;;;;;44.63;31.10;;;;;;;;;;5054664;28;21011;-71
2024/03/03 01:08:15;;;;;;;41.47;30.97;;;;;;;;;;5054897;28;20444;-71
2024/03/03 01:10:42;;;;;;;45.90;31.80;;;;;;;;;;5054872;28;20445;-71
2024/03/03 01:13:11;;;;;;;48.00;31.27;;;;;;;;;;5054753;28;20451;-71
2024/03/03 01:15:37;;;;;;;45.03;33.13;;;;;;;;;;5054708;28;20535;-71
2024/03/03 01:18:04;;;;;;;46.60;32.20;;;;;;;;;;5054481;28;20881;-71
2024/03/03 01:20:31;;;;;;;48.80;32.83;;;;;;;;;;5054567;28;21027;-71
2024/03/03 01:22:58;;;;;;;47.30;32.10;;;;;;;;;;5054637;28;20448;-71
2024/03/03 01:25:26;;;;;;;49.10;33.37;;;;;;;;;;5054470;28;20831;-71
2024/03/03 01:27:53;;;;;;;42.43;31.93;;;;;;;;;;5054335;28;20507;-71
2024/03/03 01:30:22;;;;;;;55.93;34.00;;;;;;;;;;5054339;28;20808;-71
2024/03/03 01:32:49;;;;;;;47.77;33.83;;;;;;;;;;5054474;28;20455;-71
2024/03/03 01:35:16;;;;;;;44.27;32.17;;;;;;;;;;5054401;28;20484;-71
2024/03/03 01:37:43;;;;;;;46.80;31.47;;;;;;;;;;5054371;28;20894;-71
2024/03/03 01:40:12;;;;;;;48.80;33.77;;;;;;;;;;5054047;28;20512;-71
2024/03/03 01:42:39;;;;;;;47.43;31.97;;;;;;;;;;5054229;28;20455;-71
2024/03/03 01:45:06;;;;;;;46.50;31.63;;;;;;;;;;5053930;28;20476;-71
2024/03/03 01:47:35;;;;;;;50.07;31.97;;;;;;;;;;5054208;28;20539;-71
2024/03/03 01:50:02;;;;;;;49.57;33.97;;;;;;;;;;5054350;28;21027;-71
2024/03/03 01:52:30;;;;;;;47.20;31.17;;;;;;;;;;5054057;28;20539;-71
2024/03/03 01:54:57;;;;;;;47.37;32.20;;;;;;;;;;5053907;28;20547;-71
2024/03/03 01:57:24;;;;;;;47.67;33.20;;;;;;;;;;5053742;28;20986;-71
2024/03/03 01:59:52;;;;;;;49.67;33.50;;;;;;;;;;5053700;28;20531;-71
2024/03/03 02:02:19;;;;;;;48.70;34.40;;;;;;;;;;5053933;28;20472;-71
2024/03/03 02:04:49;;;;;;;46.23;33.10;;;;;;;;;;5053696;28;20444;-71
2024/03/03 02:07:16;;;;;;;45.83;33.87;;;;;;;;;;5053547;28;20444;-71
2024/03/03 02:09:45;;;;;;;47.87;32.07;;;;;;;;;;5053653;28;21008;-71
2024/03/03 02:12:12;;;;;;;48.57;33.23;;;;;;;;;;5053465;28;20801;-71
2024/03/03 02:14:39;;;;;;;55.50;33.60;;;;;;;;;;5053766;28;20535;-71
2024/03/03 02:17:06;;;;;;;50.30;34.40;;;;;;;;;;5053714;28;20510;-71
2024/03/03 02:19:36;;;;;;;48.90;34.50;;;;;;;;;;5053587;28;20531;-71
2024/03/03 02:22:04;;;;;;;45.63;32.43;;;;;;;;;;5053515;28;20523;-71
2024/03/03 02:24:31;;;;;;;43.83;33.27;;;;;;;;;;5053341;28;20536;-71
2024/03/03 02:26:58;;;;;;;47.27;32.80;;;;;;;;;;5053104;28;21021;-71
2024/03/03 02:29:25;;;;;;;48.73;33.40;;;;;;;;;;5053423;28;20544;-71
2024/03/03 02:31:52;;;;;;;49.33;34.50;;;;;;;;;;5053351;28;20527;-71
2024/03/03 02:34:19;;;;;;;51.97;33.57;;;;;;;;;;5053267;28;20449;-71
2024/03/03 02:36:46;;;;;;;47.60;33.97;;;;;;;;;;5053202;28;20455;-71
2024/03/03 02:39:14;;;;;;;41.60;33.00;;;;;;;;;;5052857;28;20838;-71
2024/03/03 02:41:41;;;;;;;45.60;33.07;;;;;;;;;;5053316;28;20535;-71
2024/03/03 02:44:08;;;;;;;50.20;34.87;;;;;;;;;;5053100;28;20531;-71
2024/03/03 02:46:35;;;;;;;41.57;31.87;;;;;;;;;;5053011;28;20929;-71
2024/03/03 02:49:03;;;;;;;48.20;33.67;;;;;;;;;;5053009;28;20451;-71
2024/03/03 02:51:30;;;;;;;50.00;33.23;;;;;;;;;;5053045;28;20453;-71
2024/03/03 02:53:57;;;;;;;50.63;35.43;;;;;;;;;;5052858;28;20543;-71
2024/03/03 02:56:25;;;;;;;47.70;34.67;;;;;;;;;;5053120;28;20889;-71
2024/03/03 02:58:52;;;;;;;51.40;31.80;;;;;;;;;;5053065;28;20455;-71
2024/03/03 03:01:19;;;;;;;51.20;34.53;;;;;;;;;;5052965;28;20928;-71
2024/03/03 03:03:46;;;;;;;46.93;31.70;;;;;;;;;;5052658;28;20448;-71
2024/03/03 03:06:13;;;;;;;47.43;32.70;;;;;;;;;;5052649;28;20532;-71
2024/03/03 03:08:40;;;;;;;46.47;32.67;;;;;;;;;;5052714;28;20535;-71
2024/03/03 03:11:07;;;;;;;51.30;34.50;;;;;;;;;;5052843;28;20531;-71
2024/03/03 03:13:35;;;;;;;51.13;34.83;;;;;;;;;;5052802;28;20539;-71
2024/03/03 03:16:05;;;;;;;47.60;33.40;;;;;;;;;;5052751;28;20527;-71
2024/03/03 03:18:32;;;;;;;47.50;33.43;;;;;;;;;;5054623;28;20436;-71
2024/03/03 03:20:59;;;;;;;45.80;33.70;;;;;;;;;;5056712;28;20453;-71
2024/03/03 03:23:26;;;;;;;50.93;34.63;;;;;;;;;;5056922;28;20443;-71
2024/03/03 03:25:53;;;;;;;49.17;34.80;;;;;;;;;;5056753;28;20475;-71
2024/03/03 03:28:20;;;;;;;50.33;35.33;;;;;;;;;;5056690;28;20480;-71
2024/03/03 03:30:48;;;;;;;51.90;36.07;;;;;;;;;;5056694;28;20490;-71
2024/03/03 03:33:16;;;;;;;47.77;35.47;;;;;;;;;;5056541;28;20577;-71
2024/03/03 03:35:43;;;;;;;49.53;34.53;;;;;;;;;;5056431;28;20962;-71
2024/03/03 03:38:09;;;;;;;51.30;35.17;;;;;;;;;;5056642;28;20531;-71
2024/03/03 03:40:36;;;;;;;49.43;34.07;;;;;;;;;;5056287;28;20563;-71
2024/03/03 03:43:05;;;;;;;46.60;33.20;;;;;;;;;;5056451;28;20527;-71
2024/03/03 03:45:32;;;;;;;50.13;34.90;;;;;;;;;;5056307;28;20479;-71
2024/03/03 03:48:00;;;;;;;45.00;32.73;;;;;;;;;;5056314;28;21022;-71
2024/03/03 03:50:27;;;;;;;47.00;35.03;;;;;;;;;;5056489;28;20548;-71
2024/03/03 03:52:54;;;;;;;56.37;36.50;;;;;;;;;;5056341;28;20444;-71
2024/03/03 03:55:21;;;;;;;50.43;35.07;;;;;;;;;;5056336;28;21010;-71
2024/03/03 03:57:48;;;;;;;50.63;36.30;;;;;;;;;;5056181;28;20466;-71
2024/03/03 04:00:15;;;;;;;48.43;34.93;;;;;;;;;;5056050;28;21003;-71
2024/03/03 04:02:42;;;;;;;53.20;34.77;;;;;;;;;;5055951;28;20535;-71
2024/03/03 04:05:11;;;;;;;50.20;36.00;;;;;;;;;;5056122;28;20542;-71
2024/03/03 04:07:38;;;;;;;55.03;38.27;;;;;;;;;;5055968;28;20515;-71
2024/03/03 04:10:05;;;;;;;53.00;37.53;;;;;;;;;;5056027;28;20456;-71
2024/03/03 04:12:32;;;;;;;54.60;36.90;;;;;;;;;;5055915;28;20448;-71
2024/03/03 04:14:59;;;;;;;57.80;38.57;;;;;;;;;;5055713;28;20976;-71
2024/03/03 04:17:26;;;;;;;49.60;35.60;;;;;;;;;;5056054;28;20531;-71
2024/03/03 04:19:53;;;;;;;47.53;35.20;;;;;;;;;;5055868;28;20444;-71
2024/03/03 04:22:22;;;;;;;58.63;37.10;;;;;;;;;;5055628;28;21014;-71
2024/03/03 04:24:49;;;;;;;52.37;36.73;;;;;;;;;;5055728;28;20445;-71
2024/03/03 04:27:16;;;;;;;53.07;35.90;;;;;;;;;;5055509;28;20574;-71
2024/03/03 04:29:46;;;;;;;60.90;36.90;;;;;;;;;;5054126;28;20476;-71
2024/03/03 04:32:13;;;;;;;51.27;36.50;;;;;;;;;;5055670;28;20459;-71
2024/03/03 04:34:40;;;;;;;51.70;35.57;;;;;;;;;;5055632;28;20535;-71
2024/03/03 04:37:07;;;;;;;54.83;37.73;;;;;;;;;;5055469;28;20539;-71
2024/03/03 04:39:36;;;;;;;49.77;36.50;;;;;;;;;;5055274;28;20518;-71
2024/03/03 04:42:03;;;;;;;50.67;37.60;;;;;;;;;;5055215;28;21015;-71
2024/03/03 04:44:30;;;;;;;50.83;35.50;;;;;;;;;;5055415;28;20476;-71
2024/03/03 04:46:57;;;;;;;48.90;36.63;;;;;;;;;;5055060;28;20486;-71
2024/03/03 04:49:24;;;;;;;54.70;38.10;;;;;;;;;;5055305;28;20531;-71
2024/03/03 04:51:51;;;;;;;50.87;36.50;;;;;;;;;;5055196;28;20436;-71
2024/03/03 04:54:18;;;;;;;59.20;37.67;;;;;;;;;;5055118;28;20906;-71
2024/03/03 04:56:46;;;;;;;50.77;36.37;;;;;;;;;;5054959;28;20554;-70
2024/03/03 04:59:13;;;;;;;56.73;37.73;;;;;;;;;;5055153;28;20441;-71
2024/03/03 05:01:42;;;;;;;58.03;38.50;;;;;;;;;;5055060;28;20527;-71
2024/03/03 05:04:10;;;;;;;51.97;35.17;;;;;;;;;;5054975;28;20448;-71
2024/03/03 05:06:43;;;;;;;50.90;35.63;;;;;;;;;;5054780;28;20483;-71
2024/03/03 05:09:10;;;;;;;50.00;37.20;;;;;;;;;;5054750;28;20978;-71
2024/03/03 05:11:37;;;;;;;46.20;34.90;;;;;;;;;;5054914;28;20448;-71
2024/03/03 05:14:06;;;;;;;51.40;36.03;;;;;;;;;;5054889;28;20456;-71
2024/03/03 05:16:32;;;;;;;50.20;36.87;;;;;;;;;;5054775;28;20812;-71
2024/03/03 05:18:59;;;;;;;51.90;38.70;;;;;;;;;;5054701;28;20451;-71
2024/03/03 05:21:26;;;;;;;46.00;33.83;;;;;;;;;;5054638;28;20544;-71
2024/03/03 05:23:53;;;;;;;49.23;36.10;;;;;;;;;;5054417;28;20444;-71
2024/03/03 05:26:23;;;;;;;47.70;35.43;;;;;;;;;;5054574;28;20559;-71
2024/03/03 05:28:50;;;;;;;50.70;36.57;;;;;;;;;;5054339;28;20948;-71
2024/03/03 05:31:18;;;;;;;56.63;37.27;;;;;;;;;;5054480;28;20947;-71
2024/03/03 05:33:45;;;;;;;51.80;37.63;;;;;;;;;;5054378;28;20448;-71
2024/03/03 05:36:13;;;;;;;48.43;36.57;;;;;;;;;;5054176;28;20556;-71
2024/03/03 05:38:40;;;;;;;52.37;37.77;;;;;;;;;;5054205;28;20495;-71
2024/03/03 05:41:07;;;;;;;54.57;37.63;;;;;;;;;;5053876;28;20440;-71
2024/03/03 05:43:34;;;;;;;53.07;39.73;;;;;;;;;;5054247;28;20559;-71
2024/03/03 05:46:02;;;;;;;54.73;39.13;;;;;;;;;;5053980;28;20451;-71
2024/03/03 05:48:30;;;;;;;57.10;37.93;;;;;;;;;;5054114;28;20868;-71
2024/03/03 05:50:57;;;;;;;55.40;39.00;;;;;;;;;;5053833;28;20547;-71
2024/03/03 05:53:24;;;;;;;57.47;39.50;;;;;;;;;;5054161;28;20527;-71
2024/03/03 05:55:51;;;;;;;59.70;39.50;;;;;;;;;;5053798;28;20531;-71
2024/03/03 05:58:17;;;;;;;52.43;36.90;;;;;;;;;;5053893;28;20832;-71
2024/03/03 06:00:44;;;;;;;58.50;38.20;;;;;;;;;;5053857;28;20483;-71
2024/03/03 06:03:11;;;;;;;59.77;39.60;;;;;;;;;;5053756;28;20888;-71
2024/03/03 06:05:39;;;;;;;57.33;39.87;;;;;;;;;;5053652;28;20539;-71
2024/03/03 06:08:07;;;;;;;54.23;38.70;;;;;;;;;;5053766;28;20491;-71
2024/03/03 06:10:33;;;;;;;53.67;39.20;;;;;;;;;;5053731;28;20451;-71
2024/03/03 06:13:01;;;;;;;54.87;40.37;;;;;;;;;;5053648;28;20451;-71
2024/03/03 06:15:29;;;;;;;60.27;39.90;;;;;;;;;;5053603;28;20472;-71
2024/03/03 06:17:56;;;;;;;54.23;40.43;;;;;;;;;;5053506;28;20530;-70
2024/03/03 06:20:22;;;;;;;52.10;39.40;;;;;;;;;;5053425;28;20487;-71
2024/03/03 06:22:51;;;;;;;54.20;40.43;;;;;;;;;;5053594;28;20523;-71
2024/03/03 06:25:18;;;;;;;54.80;40.60;;;;;;;;;;5053492;28;20627;-71
2024/03/03 06:27:44;;;;;;;57.17;40.70;;;;;;;;;;5053143;28;21075;-71
2024/03/03 06:30:14;;;;;;;57.87;38.87;;;;;;;;;;5053305;28;20448;-71
2024/03/03 06:32:41;;;;;;;54.23;39.80;;;;;;;;;;5053204;28;20870;-70
2024/03/03 06:35:10;;;;;;;50.53;38.60;;;;;;;;;;5053469;28;20535;-71
2024/03/03 06:37:37;;;;;;;55.00;40.13;;;;;;;;;;5053271;28;20448;-71
2024/03/03 06:40:09;;;;;;;52.97;41.00;;;;;;;;;;5052988;28;20472;-71
2024/03/03 06:42:36;;;;;;;52.10;37.00;;;;;;;;;;5053657;28;20854;-71
2024/03/03 06:45:03;;;;;;;52.50;37.83;;;;;;;;;;5053024;28;20447;-71
2024/03/03 06:47:32;;;;;;;61.93;41.30;;;;;;;;;;5053120;28;20484;-71
2024/03/03 06:49:59;;;;;;;56.83;40.87;;;;;;;;;;5053105;28;20448;-71
2024/03/03 06:52:26;;;;;;;60.60;39.87;;;;;;;;;;5052338;28;20982;-71
2024/03/03 06:54:53;;;;;;;59.80;41.93;;;;;;;;;;5052867;28;20476;-71
2024/03/03 06:57:21;;;;;;;53.97;38.83;;;;;;;;;;5052856;28;20479;-71
2024/03/03 06:59:49;;;;;;;60.50;42.67;;;;;;;;;;5052799;28;20473;-71
2024/03/03 07:02:16;;;;;;;57.83;41.93;;;;;;;;;;5052977;28;20494;-71
2024/03/03 07:04:43;;;;;;;55.67;39.17;;;;;;;;;;5052904;28;20869;-71
2024/03/03 07:07:10;;;;;;;52.60;40.40;;;;;;;;;;5052684;28;20472;-71
2024/03/03 07:09:37;;;;;;;61.70;45.20;;;;;;;;;;5052772;28;20440;-71
2024/03/03 07:12:04;;;;;;;53.00;39.90;;;;;;;;;;5052709;28;20510;-71
2024/03/03 07:14:33;;;;;;;53.70;39.80;;;;;;;;;;5052861;28;20773;-71
2024/03/03 07:17:00;;;;;;;57.70;38.23;;;;;;;;;;5052853;28;20476;-71
2024/03/03 07:19:27;;;;;;;56.00;40.00;;;;;;;;;;5052733;28;20486;-71
2024/03/03 07:21:54;;;;;;;53.73;39.20;;;;;;;;;;5052701;28;20444;-71
2024/03/03 07:24:21;;;;;;;49.40;39.13;;;;;;;;;;5052605;28;20608;-71
2024/03/03 07:26:48;;;;;;;50.00;37.17;;;;;;;;;;5052421;28;20534;-71
2024/03/03 07:29:15;;;;;;;47.90;37.43;;;;;;;;;;5052724;28;20444;-71
2024/03/03 07:31:43;;;;;;;50.83;38.00;;;;;;;;;;5052691;28;20498;-71
2024/03/03 07:34:10;;;;;;;50.60;38.20;;;;;;;;;;5052527;28;20539;-72
2024/03/03 07:36:37;;;;;;;48.47;38.20;;;;;;;;;;5052585;28;20483;-72
2024/03/03 07:39:04;;;;;;;50.90;36.07;;;;;;;;;;5052286;28;20563;-71
2024/03/03 07:41:31;;;;;;;49.97;38.70;;;;;;;;;;5052636;28;20447;-72
2024/03/03 07:43:58;;;;;;;47.77;35.80;;;;;;;;;;5052569;28;20487;-71
2024/03/03 07:46:25;;;;;;;47.37;34.83;;;;;;;;;;5052483;28;20448;-72
2024/03/03 07:48:53;;;;;;;49.63;35.90;;;;;;;;;;5052491;28;20448;-72
2024/03/03 07:51:21;;;;;;;50.77;36.73;;;;;;;;;;5052459;28;20451;-72
2024/03/03 07:53:48;;;;;;;46.43;34.90;;;;;;;;;;5052333;28;20452;-72
2024/03/03 07:56:15;;;;;;;45.77;34.43;;;;;;;;;;5052574;28;20483;-72
2024/03/03 07:58:42;;;;;;;47.70;34.97;;;;;;;;;;5052495;28;20803;-72
2024/03/03 08:01:09;;;;;;;48.90;35.50;;;;;;;;;;5052390;28;20527;-72
2024/03/03 08:03:36;;;;;;;43.57;33.20;;;;;;;;;;5052268;28;21034;-71
2024/03/03 08:06:05;;;;;;;44.60;33.30;;;;;;;;;;5056009;28;20446;-72
2024/03/03 08:08:32;;;;;;;39.17;31.27;;;;;;;;;;5055813;28;21079;-71
2024/03/03 08:10:59;;;;;;;44.03;33.10;;;;;;;;;;5055833;28;20480;-72
2024/03/03 08:13:26;;;;;;;40.07;31.87;;;;;;;;;;5055949;28;20859;-72
2024/03/03 08:15:53;;;;;;;38.37;30.17;;;;;;;;;;5055858;28;20483;-72
2024/03/03 08:18:20;;;;;;;37.70;29.60;;;;;;;;;;5055814;28;20553;-72
2024/03/03 08:20:47;;;;;;;38.10;29.10;;;;;;;;;;5055734;28;20539;-71
2024/03/03 08:23:16;;;;;;;37.57;29.80;;;;;;;;;;5055660;28;20543;-72
2024/03/03 08:25:43;;;;;;;35.97;29.00;;;;;;;;;;5055729;28;20444;-72
2024/03/03 08:28:10;;;;;;;36.53;28.80;;;;;;;;;;5055514;28;20519;-72
2024/03/03 08:30:37;;;;;;;33.03;27.03;;;;;;;;;;5055498;28;20898;-72
2024/03/03 08:33:04;;;;;;;33.43;26.43;;;;;;;;;;5055322;28;20448;-71
2024/03/03 08:35:31;;;;;;;33.77;26.73;;;;;;;;;;5055358;28;20532;-72
2024/03/03 08:37:58;;;;;;;37.50;26.83;;;;;;;;;;5055297;28;20988;-72
2024/03/03 08:40:26;;;;;;;34.17;25.77;;;;;;;;;;5055122;28;20483;-72
2024/03/03 08:42:54;;;;;;;30.43;24.20;;;;;;;;;;5055404;28;20875;-72
2024/03/03 08:45:21;;;;;;;34.00;26.20;;;;;;;;;;5055255;28;20444;-73
2024/03/03 08:47:48;;;;;;;30.93;25.27;;;;;;;;;;5055096;28;20554;-72
2024/03/03 08:50:15;;;;;;;31.43;24.93;;;;;;;;;;5055107;28;20442;-72
2024/03/03 08:52:42;;;;;;;30.57;24.30;;;;;;;;;;5055212;28;20523;-72
2024/03/03 08:55:09;;;;;;;31.57;23.50;;;;;;;;;;5055159;28;20450;-72
2024/03/03 08:57:37;;;;;;;30.17;23.13;;;;;;;;;;5055098;28;20455;-72
2024/03/03 09:00:10;;;;;;;31.97;25.83;;;;;;;;;;5055033;28;20539;-72
2024/03/03 09:02:37;;;;;;;32.13;24.50;;;;;;;;;;5054900;28;20444;-72
2024/03/03 09:05:04;;;;;;;28.20;22.20;;;;;;;;;;5055029;28;20533;-72
2024/03/03 09:07:31;;;;;;;25.90;22.10;;;;;;;;;;5054864;28;20490;-72
2024/03/03 09:09:58;;;;;;;25.50;21.07;;;;;;;;;;5054873;28;20444;-72
2024/03/03 09:12:26;;;;;;;28.97;21.80;;;;;;;;;;5054808;28;20482;-72
2024/03/03 09:14:54;;;;;;;24.13;20.87;;;;;;;;;;5054764;28;20851;-72
2024/03/03 09:17:21;;;;;;;25.40;19.80;;;;;;;;;;5053753;28;20800;-72
2024/03/03 09:19:49;;;;;;;26.50;20.53;;;;;;;;;;5054745;28;20516;-72
2024/03/03 09:22:16;;;;;;;25.57;20.00;;;;;;;;;;5054691;28;20540;-71
2024/03/03 09:24:44;;;;;;;26.20;20.53;;;;;;;;;;5054597;28;20543;-72
2024/03/03 09:27:11;;;;;;;21.70;19.33;;;;;;;;;;5054350;28;20567;-73
2024/03/03 09:29:38;;;;;;;26.23;20.60;;;;;;;;;;5054324;28;20543;-72
2024/03/03 09:32:06;;;;;;;22.30;19.47;;;;;;;;;;5054368;28;20531;-72
2024/03/03 09:34:33;;;;;;;22.80;17.83;;;;;;;;;;5054393;28;20531;-72
2024/03/03 09:37:00;;;;;;;17.53;15.73;;;;;;;;;;5054199;28;20444;-72
2024/03/03 09:39:27;;;;;;;20.80;17.60;;;;;;;;;;5054011;28;20567;-72
2024/03/03 09:41:56;;;;;;;22.07;16.77;;;;;;;;;;5054097;28;20531;-72
2024/03/03 09:44:26;;;;;;;18.50;16.37;;;;;;;;;;5054409;28;20543;-72
2024/03/03 09:46:54;;;;;;;18.50;16.13;;;;;;;;;;5054263;28;20451;-72
2024/03/03 09:49:23;;;;;;;19.30;15.60;;;;;;;;;;5053899;28;20904;-72
2024/03/03 09:51:50;;;;;;;21.90;15.33;;;;;;;;;;5053906;28;21024;-72
2024/03/03 09:54:18;;;;;;;17.73;14.93;;;;;;;;;;5054008;28;20531;-72
2024/03/03 09:56:45;;;;;;;18.70;15.50;;;;;;;;;;5053676;28;20506;-72
2024/03/03 09:59:12;;;;;;;19.10;14.10;;;;;;;;;;5053809;28;20475;-73
2024/03/03 10:01:40;;;;;;;15.70;13.73;;;;;;;;;;5053823;28;20502;-72
2024/03/03 10:04:08;;;;;;;16.43;13.30;;;;;;;;;;5053765;28;20499;-72
2024/03/03 10:06:38;;;;;;;15.13;12.67;;;;;;;;;;5053714;28;21009;-72
2024/03/03 10:09:09;;;;;;;15.30;12.77;;;;;;;;;;5053524;28;20554;-72
2024/03/03 10:11:37;;;;;;;16.00;12.73;;;;;;;;;;5053590;28;20456;-72
2024/03/03 10:14:04;;;;;;;13.83;12.43;;;;;;;;;;5053713;28;20460;-73
2024/03/03 10:16:33;;;;;;;16.80;11.87;;;;;;;;;;5053585;28;20484;-72
2024/03/03 10:19:00;;;;;;;12.67;11.47;;;;;;;;;;5053557;28;20531;-72
2024/03/03 10:21:27;;;;;;;11.37;10.17;;;;;;;;;;5053381;28;20453;-72
2024/03/03 10:24:09;;;;;;;11.90;10.70;;;;;;;;;;5053186;28;20441;-73
2024/03/03 10:26:37;;;;;;;10.60;9.60;;;;;;;;;;5053473;28;20611;-72
2024/03/03 10:29:05;;;;;;;14.37;10.90;;;;;;;;;;5053358;28;20490;-73
2024/03/03 10:31:31;;;;;;;11.87;10.70;;;;;;;;;;5053120;28;20449;-72
2024/03/03 10:33:58;;;;;;;12.13;10.33;;;;;;;;;;5053144;28;20539;-72
2024/03/03 10:36:25;;;;;;;15.17;10.27;;;;;;;;;;5053128;28;20451;-73
2024/03/03 10:38:53;;;;;;;11.83;10.70;;;;;;;;;;5053124;28;20479;-72
2024/03/03 10:41:20;;;;;;;14.53;11.00;;;;;;;;;;5053075;28;20535;-72
2024/03/03 10:43:48;;;;;;;11.73;10.53;;;;;;;;;;5053309;28;20650;-73
2024/03/03 10:46:15;;;;;;;11.70;9.90;;;;;;;;;;5053063;28;20531;-72
2024/03/03 10:48:42;;;;;;;14.43;10.00;;;;;;;;;;5052849;28;20567;-72
2024/03/03 10:51:09;;;;;;;11.00;9.90;;;;;;;;;;5052930;28;21155;-72
2024/03/03 10:53:36;;;;;;;11.53;10.40;;;;;;;;;;5052989;28;20444;-73
2024/03/03 10:56:04;;;;;;;11.23;9.60;;;;;;;;;;5053031;28;20541;-72
2024/03/03 10:58:31;;;;;;;12.90;10.27;;;;;;;;;;5052927;28;20450;-73
2024/03/03 11:01:00;;;;;;;15.90;10.80;;;;;;;;;;5052754;28;20535;-72
2024/03/03 11:03:27;;;;;;;10.77;9.70;;;;;;;;;;5052726;28;20535;-72
2024/03/03 11:05:54;;;;;;;11.53;10.00;;;;;;;;;;5052975;28;20448;-72
2024/03/03 11:08:23;;;;;;;10.17;9.13;;;;;;;;;;5052733;28;20911;-72
2024/03/03 11:10:51;;;;;;;10.67;9.57;;;;;;;;;;5052739;28;20782;-72
2024/03/03 11:13:19;;;;;;;10.80;9.57;;;;;;;;;;5052715;28;20539;-72
2024/03/03 11:15:49;;;;;;;10.60;9.03;;;;;;;;;;5052666;28;20602;-72
2024/03/03 11:18:20;;;;;;;11.67;9.63;;;;;;;;;;5053131;28;20447;-72
2024/03/03 11:20:50;;;;;;;8.67;7.90;;;;;;;;;;5052865;28;20448;-72
2024/03/03 11:23:20;;;;;;;12.20;9.57;;;;;;;;;;5052749;28;20531;-72
2024/03/03 11:25:54;;;;;;;10.67;9.57;;;;;;;;;;5052679;28;20916;-72
2024/03/03 11:28:24;;;;;;;8.87;8.07;;;;;;;;;;5052441;28;20983;-72
2024/03/03 11:30:52;;;;;;;9.20;8.33;;;;;;;;;;5052698;28;20448;-72
2024/03/03 11:33:20;;;;;;;9.90;8.90;;;;;;;;;;5052576;28;20454;-72
2024/03/03 11:35:47;;;;;;;9.47;8.53;;;;;;;;;;5052524;28;20538;-72
2024/03/03 11:38:14;;;;;;;9.63;8.60;;;;;;;;;;5052441;28;20448;-72
2024/03/03 11:40:41;;;;;;;11.03;9.90;;;;;;;;;;5055538;28;21065;-72
2024/03/03 11:43:10;;;;;;;13.03;10.37;;;;;;;;;;5056340;28;20965;-72
2024/03/03 11:45:43;;;;;;;12.40;11.10;;;;;;;;;;5056503;28;20457;-72
2024/03/03 11:48:11;;;;;;;12.33;10.73;;;;;;;;;;5056125;28;20996;-72
2024/03/03 11:50:39;;;;;;;16.67;10.17;;;;;;;;;;5056160;28;20451;-72
2024/03/03 11:53:06;;;;;;;13.03;11.13;;;;;;;;;;5056254;28;20538;-72
2024/03/03 11:55:33;;;;;;;14.90;11.17;;;;;;;;;;5056103;28;20478;-72
2024/03/03 11:58:01;;;;;;;12.67;10.20;;;;;;;;;;5056372;28;20450;-72
2024/03/03 12:00:29;;;;;;;10.50;9.40;;;;;;;;;;5056185;28;20479;-73
2024/03/03 12:02:57;;;;;;;10.47;9.50;;;;;;;;;;5056029;28;20546;-72
2024/03/03 12:05:24;;;;;;;9.87;8.97;;;;;;;;;;5055931;28;20547;-73
2024/03/03 12:07:54;;;;;;;10.37;8.20;;;;;;;;;;5055737;28;20532;-72
2024/03/03 12:10:22;;;;;;;10.13;9.07;;;;;;;;;;5055729;28;20807;-72
2024/03/03 12:12:49;;;;;;;10.13;9.00;;;;;;;;;;5055882;28;20480;-72
2024/03/03 12:15:18;;;;;;;11.93;7.93;;;;;;;;;;5055904;28;20505;-72
2024/03/03 12:17:47;;;;;;;9.33;8.37;;;;;;;;;;5055852;28;20455;-72
2024/03/03 12:20:15;;;;;;;10.83;9.00;;;;;;;;;;5055644;28;20444;-73
2024/03/03 12:22:42;;;;;;;9.60;8.60;;;;;;;;;;5055434;28;20473;-73
2024/03/03 12:25:11;;;;;;;10.37;9.23;;;;;;;;;;5055794;28;20527;-72
2024/03/03 12:27:38;;;;;;;9.47;8.47;;;;;;;;;;5055679;28;20452;-73
2024/03/03 12:30:09;;;;;;;11.63;9.27;;;;;;;;;;5055396;28;20566;-72
2024/03/03 12:32:36;;;;;;;9.40;8.60;;;;;;;;;;5055403;28;20444;-72
2024/03/03 12:35:03;;;;;;;9.80;8.90;;;;;;;;;;5055219;28;20448;-72
2024/03/03 12:37:30;;;;;;;8.80;7.90;;;;;;;;;;5055063;28;20539;-72
2024/03/03 12:39:57;;;;;;;10.07;9.03;;;;;;;;;;5055197;28;20507;-73
2024/03/03 12:42:25;;;;;;;9.33;8.43;;;;;;;;;;5054980;28;21019;-72
2024/03/03 12:44:52;;;;;;;11.03;8.63;;;;;;;;;;5055121;28;20483;-72
2024/03/03 12:47:19;;;;;;;8.30;7.47;;;;;;;;;;5054920;28;20535;-73
2024/03/03 12:49:46;;;;;;;10.30;7.63;;;;;;;;;;5054738;28;20546;-72
2024/03/03 12:52:13;;;;;;;9.80;8.13;;;;;;;;;;5054153;28;20539;-72
2024/03/03 12:54:40;;;;;;;9.77;8.83;;;;;;;;;;5054999;28;20448;-73
2024/03/03 12:57:08;;;;;;;14.00;8.73;;;;;;;;;;5055181;28;20448;-73
2024/03/03 12:59:36;;;;;;;8.40;7.60;;;;;;;;;;5055009;28;20543;-73
2024/03/03 13:02:03;;;;;;;8.33;7.50;;;;;;;;;;5054924;28;20540;-73
2024/03/03 13:04:30;;;;;;;7.93;7.17;;;;;;;;;;5054824;28;20452;-73
2024/03/03 13:06:58;;;;;;;8.10;7.20;;;;;;;;;;5054755;28;20452;-73
2024/03/03 13:09:26;;;;;;;8.97;7.03;;;;;;;;;;5054844;28;20576;-72
2024/03/03 13:11:53;;;;;;;8.30;7.50;;;;;;;;;;5054735;28;20808;-72
2024/03/03 13:14:22;;;;;;;7.53;6.50;;;;;;;;;;5054694;28;20540;-72
2024/03/03 13:17:02;;;;;;;8.27;7.47;;;;;;;;;;5054495;28;20855;-73
2024/03/03 13:19:41;;;;;;;7.77;6.97;;;;;;;;;;5054713;28;20502;-72
2024/03/03 13:22:09;;;;;;;8.53;7.30;;;;;;;;;;5054654;28;20541;-72
2024/03/03 13:24:36;;;;;;;8.90;7.37;;;;;;;;;;5054480;28;20539;-72
2024/03/03 13:27:03;;;;;;;8.93;6.73;;;;;;;;;;5054185;28;20444;-72
2024/03/03 13:29:30;;;;;;;8.90;8.00;;;;;;;;;;5054496;28;20503;-72
2024/03/03 13:31:57;;;;;;;8.07;7.27;;;;;;;;;;5054327;28;20535;-72
2024/03/03 13:34:25;;;;;;;10.00;8.37;;;;;;;;;;5054413;28;20531;-73
2024/03/03 13:36:52;;;;;;;8.57;7.70;;;;;;;;;;5054275;28;20450;-72
2024/03/03 13:39:19;;;;;;;9.30;8.40;;;;;;;;;;5053919;28;21013;-72
2024/03/03 13:41:46;;;;;;;12.30;8.10;;;;;;;;;;5053997;28;20439;-72
2024/03/03 13:44:13;;;;;;;9.70;7.87;;;;;;;;;;5054281;28;20531;-72
2024/03/03 13:46:40;;;;;;;8.80;7.43;;;;;;;;;;5054290;28;20440;-72
2024/03/03 13:49:07;;;;;;;8.60;7.80;;;;;;;;;;5053910;28;20478;-72
2024/03/03 13:51:35;;;;;;;9.60;8.60;;;;;;;;;;5053985;28;20445;-72
2024/03/03 13:54:03;;;;;;;9.87;8.97;;;;;;;;;;5053918;28;20488;-72
2024/03/03 13:56:30;;;;;;;9.60;8.60;;;;;;;;;;5053660;28;20825;-72
2024/03/03 13:58:57;;;;;;;8.97;7.63;;;;;;;;;;5053837;28;20453;-73
2024/03/03 14:01:24;;;;;;;10.03;8.23;;;;;;;;;;5053735;28;20501;-73
2024/03/03 14:03:51;;;;;;;13.40;8.23;;;;;;;;;;5053687;28;20531;-72
2024/03/03 14:06:18;;;;;;;9.73;8.70;;;;;;;;;;5053678;28;20544;-73
2024/03/03 14:08:46;;;;;;;9.90;8.90;;;;;;;;;;5053177;28;20805;-72
2024/03/03 14:11:13;;;;;;;9.10;8.20;;;;;;;;;;5053811;28;20535;-73
2024/03/03 14:13:40;;;;;;;10.90;8.00;;;;;;;;;;5053696;28;20444;-73
2024/03/03 14:16:07;;;;;;;8.73;7.83;;;;;;;;;;5053592;28;20476;-72
2024/03/03 14:18:34;;;;;;;7.83;7.03;;;;;;;;;;5053536;28;20475;-72
2024/03/03 14:21:01;;;;;;;8.50;7.50;;;;;;;;;;5053329;28;20488;-72
2024/03/03 14:23:29;;;;;;;7.97;7.20;;;;;;;;;;5053235;28;20531;-72